sensor_id;sensor_type;location;lat;lon;timestamp;P1;durP1;ratioP1;P2;durP2;ratioP2
3050;SDS011;1535;51.098;6.414;2022-09-29T00:01:09;19.37;;;17.87;;
3050;SDS011;1535;51.098;6.414;2022-09-29T00:03:40;21.10;;;19.60;;
3050;SDS011;1535;51.098;6.414;2022-09-29T00:06:10;19.50;;;17.93;;
3050;SDS011;1535;51.098;6.414;2022-09-29T00:08:38;19.37;;;17.90;;
3050;SDS011;1535;51.098;6.414;2022-09-29T00:11:06;19.27;;;17.87;;
3050;SDS011;1535;51.098;6.414;2022-09-29T00:13:34;19.93;;;18.33;;
3050;SDS011;1535;51.098;6.414;2022-09-29T00:16:02;19.10;;;17.80;;
3050;SDS011;1535;51.098;6.414;2022-09-29T00:18:30;19.10;;;17.70;;
3050;SDS011;1535;51.098;6.414;2022-09-29T00:21:02;20.90;;;19.23;;
3050;SDS011;1535;51.098;6.414;2022-09-29T00:23:31;19.27;;;17.33;;
3050;SDS011;1535;51.098;6.414;2022-09-29T00:26:02;19.83;;;18.13;;
3050;SDS011;1535;51.098;6.414;2022-09-29T00:28:31;19.40;;;18.10;;
3050;SDS011;1535;51.098;6.414;2022-09-29T00:30:59;18.47;;;17.27;;
3050;SDS011;1535;51.098;6.414;2022-09-29T00:33:27;19.50;;;18.10;;
3050;SDS011;1535;51.098;6.414;2022-09-29T00:35:56;21.80;;;20.20;;
3050;SDS011;1535;51.098;6.414;2022-09-29T00:38:26;20.80;;;19.10;;
3050;SDS011;1535;51.098;6.414;2022-09-29T00:40:54;23.13;;;21.53;;
3050;SDS011;1535;51.098;6.414;2022-09-29T00:43:23;21.17;;;19.50;;
3050;SDS011;1535;51.098;6.414;2022-09-29T00:46:11;22.33;;;20.50;;
3050;SDS011;1535;51.098;6.414;2022-09-29T00:48:39;21.90;;;20.20;;
3050;SDS011;1535;51.098;6.414;2022-09-29T00:51:06;19.73;;;18.53;;
3050;SDS011;1535;51.098;6.414;2022-09-29T00:53:35;20.53;;;19.13;;
3050;SDS011;1535;51.098;6.414;2022-09-29T00:56:03;21.60;;;20.20;;
3050;SDS011;1535;51.098;6.414;2022-09-29T00:58:33;20.40;;;19.20;;
3050;SDS011;1535;51.098;6.414;2022-09-29T01:01:03;21.20;;;19.70;;
3050;SDS011;1535;51.098;6.414;2022-09-29T01:03:32;22.53;;;20.83;;
3050;SDS011;1535;51.098;6.414;2022-09-29T01:06:03;23.13;;;21.13;;
3050;SDS011;1535;51.098;6.414;2022-09-29T01:08:40;22.00;;;20.50;;
3050;SDS011;1535;51.098;6.414;2022-09-29T01:11:10;22.10;;;20.70;;
3050;SDS011;1535;51.098;6.414;2022-09-29T01:13:39;22.37;;;20.77;;
3050;SDS011;1535;51.098;6.414;2022-09-29T01:16:07;21.97;;;20.47;;
3050;SDS011;1535;51.098;6.414;2022-09-29T01:18:35;22.10;;;20.57;;
3050;SDS011;1535;51.098;6.414;2022-09-29T01:21:06;22.40;;;20.90;;
3050;SDS011;1535;51.098;6.414;2022-09-29T01:23:45;22.10;;;20.43;;
3050;SDS011;1535;51.098;6.414;2022-09-29T01:27:03;22.37;;;20.97;;
3050;SDS011;1535;51.098;6.414;2022-09-29T01:29:52;23.17;;;21.33;;
3050;SDS011;1535;51.098;6.414;2022-09-29T01:32:45;23.47;;;21.87;;
3050;SDS011;1535;51.098;6.414;2022-09-29T01:35:34;22.80;;;21.40;;
3050;SDS011;1535;51.098;6.414;2022-09-29T01:38:11;24.03;;;22.33;;
3050;SDS011;1535;51.098;6.414;2022-09-29T01:40:49;22.67;;;21.13;;
3050;SDS011;1535;51.098;6.414;2022-09-29T01:43:23;23.47;;;21.97;;
3050;SDS011;1535;51.098;6.414;2022-09-29T01:45:56;23.57;;;21.27;;
3050;SDS011;1535;51.098;6.414;2022-09-29T01:48:30;22.23;;;20.70;;
3050;SDS011;1535;51.098;6.414;2022-09-29T01:51:00;21.67;;;20.33;;
3050;SDS011;1535;51.098;6.414;2022-09-29T01:53:32;24.63;;;22.93;;
3050;SDS011;1535;51.098;6.414;2022-09-29T01:56:04;23.80;;;22.13;;
3050;SDS011;1535;51.098;6.414;2022-09-29T01:58:36;24.60;;;22.70;;
3050;SDS011;1535;51.098;6.414;2022-09-29T02:01:10;24.27;;;22.70;;
3050;SDS011;1535;51.098;6.414;2022-09-29T02:03:41;25.27;;;23.57;;
3050;SDS011;1535;51.098;6.414;2022-09-29T02:06:12;25.03;;;23.07;;
3050;SDS011;1535;51.098;6.414;2022-09-29T02:08:43;22.93;;;21.53;;
3050;SDS011;1535;51.098;6.414;2022-09-29T02:11:14;24.63;;;22.80;;
3050;SDS011;1535;51.098;6.414;2022-09-29T02:13:44;24.93;;;23.13;;
3050;SDS011;1535;51.098;6.414;2022-09-29T02:16:15;24.57;;;22.83;;
3050;SDS011;1535;51.098;6.414;2022-09-29T02:18:47;25.20;;;23.50;;
3050;SDS011;1535;51.098;6.414;2022-09-29T02:21:17;25.63;;;23.73;;
3050;SDS011;1535;51.098;6.414;2022-09-29T02:23:43;26.60;;;24.30;;
3050;SDS011;1535;51.098;6.414;2022-09-29T02:26:11;26.63;;;24.30;;
3050;SDS011;1535;51.098;6.414;2022-09-29T02:28:39;28.63;;;24.23;;
3050;SDS011;1535;51.098;6.414;2022-09-29T02:31:07;25.57;;;23.77;;
3050;SDS011;1535;51.098;6.414;2022-09-29T02:33:34;26.53;;;24.57;;
3050;SDS011;1535;51.098;6.414;2022-09-29T02:36:06;24.27;;;22.43;;
3050;SDS011;1535;51.098;6.414;2022-09-29T02:38:46;24.40;;;22.80;;
3050;SDS011;1535;51.098;6.414;2022-09-29T02:41:21;22.70;;;21.30;;
3050;SDS011;1535;51.098;6.414;2022-09-29T02:44:00;24.47;;;22.70;;
3050;SDS011;1535;51.098;6.414;2022-09-29T02:46:40;24.77;;;23.17;;
3050;SDS011;1535;51.098;6.414;2022-09-29T02:49:20;24.97;;;22.87;;
3050;SDS011;1535;51.098;6.414;2022-09-29T02:51:59;24.33;;;22.53;;
3050;SDS011;1535;51.098;6.414;2022-09-29T02:54:41;25.67;;;23.93;;
3050;SDS011;1535;51.098;6.414;2022-09-29T02:57:21;23.97;;;22.37;;
3050;SDS011;1535;51.098;6.414;2022-09-29T02:59:56;24.37;;;22.67;;
3050;SDS011;1535;51.098;6.414;2022-09-29T03:02:31;25.67;;;23.57;;
3050;SDS011;1535;51.098;6.414;2022-09-29T03:04:58;24.20;;;22.30;;
3050;SDS011;1535;51.098;6.414;2022-09-29T03:07:28;24.73;;;23.03;;
3050;SDS011;1535;51.098;6.414;2022-09-29T03:09:56;26.17;;;24.10;;
3050;SDS011;1535;51.098;6.414;2022-09-29T03:12:24;26.10;;;24.30;;
3050;SDS011;1535;51.098;6.414;2022-09-29T03:14:51;25.63;;;23.53;;
3050;SDS011;1535;51.098;6.414;2022-09-29T03:17:19;25.43;;;23.33;;
3050;SDS011;1535;51.098;6.414;2022-09-29T03:19:46;25.30;;;23.30;;
3050;SDS011;1535;51.098;6.414;2022-09-29T03:22:12;24.77;;;23.07;;
3050;SDS011;1535;51.098;6.414;2022-09-29T03:24:41;25.60;;;23.80;;
3050;SDS011;1535;51.098;6.414;2022-09-29T03:27:08;25.70;;;23.90;;
3050;SDS011;1535;51.098;6.414;2022-09-29T03:29:35;26.63;;;24.77;;
3050;SDS011;1535;51.098;6.414;2022-09-29T03:32:02;28.40;;;26.00;;
3050;SDS011;1535;51.098;6.414;2022-09-29T03:34:29;26.97;;;24.83;;
3050;SDS011;1535;51.098;6.414;2022-09-29T03:36:56;24.97;;;23.17;;
3050;SDS011;1535;51.098;6.414;2022-09-29T03:39:23;26.87;;;24.77;;
3050;SDS011;1535;51.098;6.414;2022-09-29T03:41:53;26.40;;;24.60;;
3050;SDS011;1535;51.098;6.414;2022-09-29T03:44:21;26.63;;;24.67;;
3050;SDS011;1535;51.098;6.414;2022-09-29T03:46:48;26.90;;;24.70;;
3050;SDS011;1535;51.098;6.414;2022-09-29T03:49:15;27.90;;;25.50;;
3050;SDS011;1535;51.098;6.414;2022-09-29T03:51:42;28.13;;;25.73;;
3050;SDS011;1535;51.098;6.414;2022-09-29T03:54:09;27.77;;;25.53;;
3050;SDS011;1535;51.098;6.414;2022-09-29T03:56:38;25.67;;;23.87;;
3050;SDS011;1535;51.098;6.414;2022-09-29T03:59:07;25.80;;;23.83;;
3050;SDS011;1535;51.098;6.414;2022-09-29T04:01:36;28.43;;;26.33;;
3050;SDS011;1535;51.098;6.414;2022-09-29T04:04:03;28.50;;;26.40;;
3050;SDS011;1535;51.098;6.414;2022-09-29T04:06:30;29.70;;;27.00;;
3050;SDS011;1535;51.098;6.414;2022-09-29T04:08:57;27.53;;;25.53;;
3050;SDS011;1535;51.098;6.414;2022-09-29T04:11:26;27.73;;;25.53;;
3050;SDS011;1535;51.098;6.414;2022-09-29T04:13:53;28.07;;;26.07;;
3050;SDS011;1535;51.098;6.414;2022-09-29T04:16:21;27.70;;;25.50;;
3050;SDS011;1535;51.098;6.414;2022-09-29T04:18:48;27.17;;;25.33;;
3050;SDS011;1535;51.098;6.414;2022-09-29T04:21:16;29.37;;;27.00;;
3050;SDS011;1535;51.098;6.414;2022-09-29T04:23:42;29.60;;;27.10;;
3050;SDS011;1535;51.098;6.414;2022-09-29T04:26:09;26.83;;;24.77;;
3050;SDS011;1535;51.098;6.414;2022-09-29T04:28:37;26.63;;;24.67;;
3050;SDS011;1535;51.098;6.414;2022-09-29T04:31:04;26.57;;;24.57;;
3050;SDS011;1535;51.098;6.414;2022-09-29T04:33:33;26.43;;;24.63;;
3050;SDS011;1535;51.098;6.414;2022-09-29T04:36:00;28.20;;;26.10;;
3050;SDS011;1535;51.098;6.414;2022-09-29T04:38:27;28.13;;;26.03;;
3050;SDS011;1535;51.098;6.414;2022-09-29T04:40:55;28.53;;;26.17;;
3050;SDS011;1535;51.098;6.414;2022-09-29T04:43:22;29.03;;;26.33;;
3050;SDS011;1535;51.098;6.414;2022-09-29T04:45:49;27.60;;;25.53;;
3050;SDS011;1535;51.098;6.414;2022-09-29T04:48:16;28.20;;;26.10;;
3050;SDS011;1535;51.098;6.414;2022-09-29T04:50:46;27.37;;;25.30;;
3050;SDS011;1535;51.098;6.414;2022-09-29T04:53:15;28.30;;;26.10;;
3050;SDS011;1535;51.098;6.414;2022-09-29T04:55:42;26.80;;;24.80;;
3050;SDS011;1535;51.098;6.414;2022-09-29T04:58:08;27.73;;;25.50;;
3050;SDS011;1535;51.098;6.414;2022-09-29T05:00:36;27.47;;;25.47;;
3050;SDS011;1535;51.098;6.414;2022-09-29T05:03:03;28.40;;;26.20;;
3050;SDS011;1535;51.098;6.414;2022-09-29T05:05:30;28.47;;;26.37;;
3050;SDS011;1535;51.098;6.414;2022-09-29T05:07:58;29.27;;;27.03;;
3050;SDS011;1535;51.098;6.414;2022-09-29T05:10:28;28.50;;;26.40;;
3050;SDS011;1535;51.098;6.414;2022-09-29T05:12:54;28.63;;;26.60;;
3050;SDS011;1535;51.098;6.414;2022-09-29T05:15:21;27.83;;;25.20;;
3050;SDS011;1535;51.098;6.414;2022-09-29T05:17:49;28.70;;;26.37;;
3050;SDS011;1535;51.098;6.414;2022-09-29T05:20:16;29.77;;;27.20;;
3050;SDS011;1535;51.098;6.414;2022-09-29T05:22:43;29.17;;;26.97;;
3050;SDS011;1535;51.098;6.414;2022-09-29T05:25:11;29.77;;;27.37;;
3050;SDS011;1535;51.098;6.414;2022-09-29T05:27:38;30.40;;;27.90;;
3050;SDS011;1535;51.098;6.414;2022-09-29T05:30:05;29.63;;;27.00;;
3050;SDS011;1535;51.098;6.414;2022-09-29T05:32:33;29.20;;;26.90;;
3050;SDS011;1535;51.098;6.414;2022-09-29T05:35:00;29.07;;;26.87;;
3050;SDS011;1535;51.098;6.414;2022-09-29T05:37:28;29.53;;;27.17;;
3050;SDS011;1535;51.098;6.414;2022-09-29T05:39:55;28.27;;;26.13;;
3050;SDS011;1535;51.098;6.414;2022-09-29T05:42:23;28.63;;;26.10;;
3050;SDS011;1535;51.098;6.414;2022-09-29T05:44:51;31.80;;;26.70;;
3050;SDS011;1535;51.098;6.414;2022-09-29T05:47:18;28.27;;;25.80;;
3050;SDS011;1535;51.098;6.414;2022-09-29T05:49:46;29.50;;;27.20;;
3050;SDS011;1535;51.098;6.414;2022-09-29T05:52:13;27.43;;;25.30;;
3050;SDS011;1535;51.098;6.414;2022-09-29T05:54:40;29.17;;;26.77;;
3050;SDS011;1535;51.098;6.414;2022-09-29T05:57:07;27.07;;;25.07;;
3050;SDS011;1535;51.098;6.414;2022-09-29T05:59:36;28.50;;;26.10;;
3050;SDS011;1535;51.098;6.414;2022-09-29T06:02:04;29.40;;;26.57;;
3050;SDS011;1535;51.098;6.414;2022-09-29T06:04:31;28.60;;;26.00;;
3050;SDS011;1535;51.098;6.414;2022-09-29T06:06:59;28.90;;;26.43;;
3050;SDS011;1535;51.098;6.414;2022-09-29T06:09:26;30.20;;;27.17;;
3050;SDS011;1535;51.098;6.414;2022-09-29T06:11:53;29.33;;;26.30;;
3050;SDS011;1535;51.098;6.414;2022-09-29T06:14:20;28.10;;;26.00;;
3050;SDS011;1535;51.098;6.414;2022-09-29T06:16:48;28.87;;;26.20;;
3050;SDS011;1535;51.098;6.414;2022-09-29T06:19:15;43.30;;;27.00;;
3050;SDS011;1535;51.098;6.414;2022-09-29T06:21:42;35.67;;;26.83;;
3050;SDS011;1535;51.098;6.414;2022-09-29T06:24:10;29.07;;;26.50;;
3050;SDS011;1535;51.098;6.414;2022-09-29T06:26:37;39.67;;;28.53;;
3050;SDS011;1535;51.098;6.414;2022-09-29T06:29:04;36.60;;;27.43;;
3050;SDS011;1535;51.098;6.414;2022-09-29T06:31:32;30.57;;;26.90;;
3050;SDS011;1535;51.098;6.414;2022-09-29T06:34:00;29.23;;;26.13;;
3050;SDS011;1535;51.098;6.414;2022-09-29T06:36:29;29.80;;;27.10;;
3050;SDS011;1535;51.098;6.414;2022-09-29T06:39:16;28.37;;;25.97;;
3050;SDS011;1535;51.098;6.414;2022-09-29T06:41:43;31.30;;;27.03;;
3050;SDS011;1535;51.098;6.414;2022-09-29T06:44:16;31.10;;;25.37;;
3050;SDS011;1535;51.098;6.414;2022-09-29T06:46:43;31.67;;;28.40;;
3050;SDS011;1535;51.098;6.414;2022-09-29T06:49:11;28.07;;;25.57;;
3050;SDS011;1535;51.098;6.414;2022-09-29T06:51:39;26.43;;;24.23;;
3050;SDS011;1535;51.098;6.414;2022-09-29T06:54:08;28.37;;;25.90;;
3050;SDS011;1535;51.098;6.414;2022-09-29T06:56:34;33.27;;;26.77;;
3050;SDS011;1535;51.098;6.414;2022-09-29T06:59:02;28.93;;;24.93;;
3050;SDS011;1535;51.098;6.414;2022-09-29T07:01:29;27.47;;;24.80;;
3050;SDS011;1535;51.098;6.414;2022-09-29T07:03:57;32.90;;;25.20;;
3050;SDS011;1535;51.098;6.414;2022-09-29T07:06:29;37.43;;;26.07;;
3050;SDS011;1535;51.098;6.414;2022-09-29T07:08:57;28.47;;;25.70;;
3050;SDS011;1535;51.098;6.414;2022-09-29T07:11:25;32.00;;;25.77;;
3050;SDS011;1535;51.098;6.414;2022-09-29T07:13:53;28.37;;;25.33;;
3050;SDS011;1535;51.098;6.414;2022-09-29T07:16:19;29.83;;;26.40;;
3050;SDS011;1535;51.098;6.414;2022-09-29T07:18:47;31.40;;;26.47;;
3050;SDS011;1535;51.098;6.414;2022-09-29T07:21:15;35.43;;;26.50;;
3050;SDS011;1535;51.098;6.414;2022-09-29T07:23:44;46.30;;;27.37;;
3050;SDS011;1535;51.098;6.414;2022-09-29T07:26:11;28.93;;;25.70;;
3050;SDS011;1535;51.098;6.414;2022-09-29T07:28:40;33.70;;;27.67;;
3050;SDS011;1535;51.098;6.414;2022-09-29T07:31:08;34.30;;;26.40;;
3050;SDS011;1535;51.098;6.414;2022-09-29T07:33:36;34.33;;;26.30;;
3050;SDS011;1535;51.098;6.414;2022-09-29T07:36:03;32.13;;;28.70;;
3050;SDS011;1535;51.098;6.414;2022-09-29T07:38:31;31.23;;;26.70;;
3050;SDS011;1535;51.098;6.414;2022-09-29T07:41:00;28.43;;;25.60;;
3050;SDS011;1535;51.098;6.414;2022-09-29T07:43:28;30.63;;;27.70;;
3050;SDS011;1535;51.098;6.414;2022-09-29T07:45:56;33.20;;;29.27;;
3050;SDS011;1535;51.098;6.414;2022-09-29T07:48:24;30.90;;;28.00;;
3050;SDS011;1535;51.098;6.414;2022-09-29T07:50:56;30.30;;;27.37;;
3050;SDS011;1535;51.098;6.414;2022-09-29T07:53:26;29.47;;;26.67;;
3050;SDS011;1535;51.098;6.414;2022-09-29T07:55:54;33.33;;;28.50;;
3050;SDS011;1535;51.098;6.414;2022-09-29T07:58:22;32.43;;;29.20;;
3050;SDS011;1535;51.098;6.414;2022-09-29T08:00:53;31.70;;;28.27;;
3050;SDS011;1535;51.098;6.414;2022-09-29T08:03:21;33.30;;;29.50;;
3050;SDS011;1535;51.098;6.414;2022-09-29T08:05:49;38.57;;;30.80;;
3050;SDS011;1535;51.098;6.414;2022-09-29T08:08:16;35.17;;;31.47;;
3050;SDS011;1535;51.098;6.414;2022-09-29T08:10:44;41.57;;;31.40;;
3050;SDS011;1535;51.098;6.414;2022-09-29T08:13:11;33.40;;;30.07;;
3050;SDS011;1535;51.098;6.414;2022-09-29T08:15:39;38.73;;;33.00;;
3050;SDS011;1535;51.098;6.414;2022-09-29T08:18:06;35.00;;;31.13;;
3050;SDS011;1535;51.098;6.414;2022-09-29T08:20:34;40.27;;;31.70;;
3050;SDS011;1535;51.098;6.414;2022-09-29T08:23:01;33.50;;;30.20;;
3050;SDS011;1535;51.098;6.414;2022-09-29T08:25:29;34.63;;;30.90;;
3050;SDS011;1535;51.098;6.414;2022-09-29T08:27:55;33.20;;;29.70;;
3050;SDS011;1535;51.098;6.414;2022-09-29T08:30:22;31.97;;;28.70;;
3050;SDS011;1535;51.098;6.414;2022-09-29T08:32:51;31.73;;;28.30;;
3050;SDS011;1535;51.098;6.414;2022-09-29T08:35:18;31.97;;;29.07;;
3050;SDS011;1535;51.098;6.414;2022-09-29T08:37:45;32.70;;;29.70;;
3050;SDS011;1535;51.098;6.414;2022-09-29T08:40:13;33.20;;;29.63;;
3050;SDS011;1535;51.098;6.414;2022-09-29T08:42:42;32.53;;;28.73;;
3050;SDS011;1535;51.098;6.414;2022-09-29T08:45:18;32.37;;;29.50;;
3050;SDS011;1535;51.098;6.414;2022-09-29T08:47:53;32.97;;;30.00;;
3050;SDS011;1535;51.098;6.414;2022-09-29T08:50:30;31.90;;;28.87;;
3050;SDS011;1535;51.098;6.414;2022-09-29T08:53:01;33.17;;;29.70;;
3050;SDS011;1535;51.098;6.414;2022-09-29T08:55:33;33.97;;;30.30;;
3050;SDS011;1535;51.098;6.414;2022-09-29T08:58:07;32.50;;;29.13;;
3050;SDS011;1535;51.098;6.414;2022-09-29T09:00:38;31.60;;;28.37;;
3050;SDS011;1535;51.098;6.414;2022-09-29T09:03:12;30.27;;;27.03;;
3050;SDS011;1535;51.098;6.414;2022-09-29T09:05:58;42.13;;;29.63;;
3050;SDS011;1535;51.098;6.414;2022-09-29T09:08:38;31.60;;;27.80;;
3050;SDS011;1535;51.098;6.414;2022-09-29T09:11:21;30.17;;;27.17;;
3050;SDS011;1535;51.098;6.414;2022-09-29T09:13:59;31.70;;;28.40;;
3050;SDS011;1535;51.098;6.414;2022-09-29T09:16:36;33.20;;;28.20;;
3050;SDS011;1535;51.098;6.414;2022-09-29T09:19:28;32.70;;;29.00;;
3050;SDS011;1535;51.098;6.414;2022-09-29T09:22:25;30.97;;;27.73;;
3050;SDS011;1535;51.098;6.414;2022-09-29T09:25:03;33.30;;;29.03;;
3050;SDS011;1535;51.098;6.414;2022-09-29T09:27:39;47.00;;;28.87;;
3050;SDS011;1535;51.098;6.414;2022-09-29T09:30:12;28.13;;;25.43;;
3050;SDS011;1535;51.098;6.414;2022-09-29T09:32:43;37.63;;;28.03;;
3050;SDS011;1535;51.098;6.414;2022-09-29T09:35:24;29.43;;;26.50;;
3050;SDS011;1535;51.098;6.414;2022-09-29T09:37:57;36.33;;;26.77;;
3050;SDS011;1535;51.098;6.414;2022-09-29T09:40:38;26.30;;;23.43;;
3050;SDS011;1535;51.098;6.414;2022-09-29T09:43:09;25.17;;;22.77;;
3050;SDS011;1535;51.098;6.414;2022-09-29T09:45:41;22.23;;;20.10;;
3050;SDS011;1535;51.098;6.414;2022-09-29T09:48:13;22.20;;;20.20;;
3050;SDS011;1535;51.098;6.414;2022-09-29T09:50:46;23.43;;;21.13;;
3050;SDS011;1535;51.098;6.414;2022-09-29T09:53:15;21.90;;;20.30;;
3050;SDS011;1535;51.098;6.414;2022-09-29T09:55:49;22.37;;;20.77;;
3050;SDS011;1535;51.098;6.414;2022-09-29T09:58:33;20.83;;;19.30;;
3050;SDS011;1535;51.098;6.414;2022-09-29T10:01:15;22.37;;;20.40;;
3050;SDS011;1535;51.098;6.414;2022-09-29T10:03:42;21.87;;;20.00;;
3050;SDS011;1535;51.098;6.414;2022-09-29T10:06:10;21.57;;;19.60;;
3050;SDS011;1535;51.098;6.414;2022-09-29T10:08:37;22.77;;;20.70;;
3050;SDS011;1535;51.098;6.414;2022-09-29T10:11:11;23.10;;;21.50;;
3050;SDS011;1535;51.098;6.414;2022-09-29T10:13:47;23.20;;;21.27;;
3050;SDS011;1535;51.098;6.414;2022-09-29T10:16:21;24.57;;;22.47;;
3050;SDS011;1535;51.098;6.414;2022-09-29T10:18:53;23.70;;;21.80;;
3050;SDS011;1535;51.098;6.414;2022-09-29T10:21:22;25.10;;;21.70;;
3050;SDS011;1535;51.098;6.414;2022-09-29T10:24:01;24.00;;;22.00;;
3050;SDS011;1535;51.098;6.414;2022-09-29T10:26:31;25.57;;;22.87;;
3050;SDS011;1535;51.098;6.414;2022-09-29T10:29:03;24.27;;;22.43;;
3050;SDS011;1535;51.098;6.414;2022-09-29T10:31:56;23.50;;;21.40;;
3050;SDS011;1535;51.098;6.414;2022-09-29T10:34:26;22.90;;;21.03;;
3050;SDS011;1535;51.098;6.414;2022-09-29T10:36:57;21.30;;;19.70;;
3050;SDS011;1535;51.098;6.414;2022-09-29T10:39:30;20.90;;;19.20;;
3050;SDS011;1535;51.098;6.414;2022-09-29T10:41:58;20.40;;;19.10;;
3050;SDS011;1535;51.098;6.414;2022-09-29T10:44:29;19.93;;;18.67;;
3050;SDS011;1535;51.098;6.414;2022-09-29T10:46:58;20.10;;;18.77;;
3050;SDS011;1535;51.098;6.414;2022-09-29T10:49:26;24.03;;;18.80;;
3050;SDS011;1535;51.098;6.414;2022-09-29T10:51:57;20.37;;;18.83;;
3050;SDS011;1535;51.098;6.414;2022-09-29T10:54:27;20.20;;;18.90;;
3050;SDS011;1535;51.098;6.414;2022-09-29T10:56:56;21.47;;;20.00;;
3050;SDS011;1535;51.098;6.414;2022-09-29T10:59:25;19.00;;;17.80;;
3050;SDS011;1535;51.098;6.414;2022-09-29T11:01:53;18.57;;;17.17;;
3050;SDS011;1535;51.098;6.414;2022-09-29T11:04:23;19.27;;;17.87;;
3050;SDS011;1535;51.098;6.414;2022-09-29T11:06:53;20.40;;;19.00;;
3050;SDS011;1535;51.098;6.414;2022-09-29T11:09:29;18.57;;;17.47;;
3050;SDS011;1535;51.098;6.414;2022-09-29T11:12:00;18.83;;;17.53;;
3050;SDS011;1535;51.098;6.414;2022-09-29T11:14:28;19.07;;;17.73;;
3050;SDS011;1535;51.098;6.414;2022-09-29T11:17:19;18.97;;;17.60;;
3050;SDS011;1535;51.098;6.414;2022-09-29T11:19:47;19.57;;;18.07;;
3050;SDS011;1535;51.098;6.414;2022-09-29T11:22:28;18.27;;;17.27;;
3050;SDS011;1535;51.098;6.414;2022-09-29T11:25:17;19.60;;;18.20;;
3050;SDS011;1535;51.098;6.414;2022-09-29T11:28:02;18.93;;;17.33;;
3050;SDS011;1535;51.098;6.414;2022-09-29T11:30:42;20.17;;;18.60;;
3050;SDS011;1535;51.098;6.414;2022-09-29T11:33:22;20.70;;;19.10;;
3050;SDS011;1535;51.098;6.414;2022-09-29T11:35:59;20.20;;;18.67;;
3050;SDS011;1535;51.098;6.414;2022-09-29T11:38:36;19.33;;;18.00;;
3050;SDS011;1535;51.098;6.414;2022-09-29T11:41:17;19.40;;;18.20;;
3050;SDS011;1535;51.098;6.414;2022-09-29T11:43:57;19.90;;;18.57;;
3050;SDS011;1535;51.098;6.414;2022-09-29T11:46:36;19.40;;;18.03;;
3050;SDS011;1535;51.098;6.414;2022-09-29T11:49:21;18.73;;;17.53;;
3050;SDS011;1535;51.098;6.414;2022-09-29T11:52:08;18.90;;;17.90;;
3050;SDS011;1535;51.098;6.414;2022-09-29T11:54:49;18.77;;;17.30;;
3050;SDS011;1535;51.098;6.414;2022-09-29T11:57:35;19.30;;;17.70;;
3050;SDS011;1535;51.098;6.414;2022-09-29T12:00:11;20.07;;;18.13;;
3050;SDS011;1535;51.098;6.414;2022-09-29T12:02:45;18.80;;;17.60;;
3050;SDS011;1535;51.098;6.414;2022-09-29T12:05:30;19.10;;;17.77;;
3050;SDS011;1535;51.098;6.414;2022-09-29T12:08:08;18.87;;;17.67;;
3050;SDS011;1535;51.098;6.414;2022-09-29T12:10:43;16.87;;;15.67;;
3050;SDS011;1535;51.098;6.414;2022-09-29T12:13:21;17.87;;;16.70;;
3050;SDS011;1535;51.098;6.414;2022-09-29T12:15:59;16.33;;;15.53;;
3050;SDS011;1535;51.098;6.414;2022-09-29T12:18:31;17.60;;;16.63;;
3050;SDS011;1535;51.098;6.414;2022-09-29T12:21:04;18.00;;;16.93;;
3050;SDS011;1535;51.098;6.414;2022-09-29T12:23:33;18.83;;;17.73;;
3050;SDS011;1535;51.098;6.414;2022-09-29T12:26:03;19.00;;;17.80;;
3050;SDS011;1535;51.098;6.414;2022-09-29T12:28:41;19.33;;;18.23;;
3050;SDS011;1535;51.098;6.414;2022-09-29T12:31:14;18.70;;;17.60;;
3050;SDS011;1535;51.098;6.414;2022-09-29T12:33:45;18.60;;;17.50;;
3050;SDS011;1535;51.098;6.414;2022-09-29T12:36:19;20.17;;;18.73;;
3050;SDS011;1535;51.098;6.414;2022-09-29T12:39:22;18.87;;;17.80;;
3050;SDS011;1535;51.098;6.414;2022-09-29T12:41:55;19.73;;;18.40;;
3050;SDS011;1535;51.098;6.414;2022-09-29T12:44:34;19.93;;;18.53;;
3050;SDS011;1535;51.098;6.414;2022-09-29T12:47:06;19.07;;;17.97;;
3050;SDS011;1535;51.098;6.414;2022-09-29T12:49:45;18.60;;;17.47;;
3050;SDS011;1535;51.098;6.414;2022-09-29T12:52:21;19.03;;;17.93;;
3050;SDS011;1535;51.098;6.414;2022-09-29T12:54:54;18.80;;;17.70;;
3050;SDS011;1535;51.098;6.414;2022-09-29T12:57:25;19.53;;;18.07;;
3050;SDS011;1535;51.098;6.414;2022-09-29T13:00:00;19.30;;;18.10;;
3050;SDS011;1535;51.098;6.414;2022-09-29T13:02:44;19.70;;;18.40;;
3050;SDS011;1535;51.098;6.414;2022-09-29T13:05:34;19.07;;;17.87;;
3050;SDS011;1535;51.098;6.414;2022-09-29T13:14:20;18.70;;;17.60;;
3050;SDS011;1535;51.098;6.414;2022-09-29T13:17:08;18.90;;;17.70;;
3050;SDS011;1535;51.098;6.414;2022-09-29T13:19:58;18.73;;;17.60;;
3050;SDS011;1535;51.098;6.414;2022-09-29T13:25:52;18.90;;;17.47;;
3050;SDS011;1535;51.098;6.414;2022-09-29T13:28:28;18.50;;;17.30;;
3050;SDS011;1535;51.098;6.414;2022-09-29T13:30:59;18.60;;;17.50;;
3050;SDS011;1535;51.098;6.414;2022-09-29T13:33:30;18.50;;;17.50;;
3050;SDS011;1535;51.098;6.414;2022-09-29T13:35:58;17.53;;;16.53;;
3050;SDS011;1535;51.098;6.414;2022-09-29T13:38:26;17.00;;;16.17;;
3050;SDS011;1535;51.098;6.414;2022-09-29T13:41:08;17.93;;;16.70;;
3050;SDS011;1535;51.098;6.414;2022-09-29T13:43:42;17.33;;;16.50;;
3050;SDS011;1535;51.098;6.414;2022-09-29T13:46:35;34.93;;;32.03;;
3050;SDS011;1535;51.098;6.414;2022-09-29T13:49:13;17.50;;;16.50;;
3050;SDS011;1535;51.098;6.414;2022-09-29T13:51:49;17.70;;;16.80;;
3050;SDS011;1535;51.098;6.414;2022-09-29T14:00:00;17.83;;;16.73;;
3050;SDS011;1535;51.098;6.414;2022-09-29T14:02:42;17.87;;;16.90;;
3050;SDS011;1535;51.098;6.414;2022-09-29T14:08:26;18.20;;;17.00;;
3050;SDS011;1535;51.098;6.414;2022-09-29T14:11:00;18.20;;;17.10;;
3050;SDS011;1535;51.098;6.414;2022-09-29T14:13:39;18.43;;;17.23;;
3050;SDS011;1535;51.098;6.414;2022-09-29T14:16:13;18.10;;;16.70;;
3050;SDS011;1535;51.098;6.414;2022-09-29T14:18:50;17.33;;;16.53;;
3050;SDS011;1535;51.098;6.414;2022-09-29T14:27:18;17.80;;;16.60;;
3050;SDS011;1535;51.098;6.414;2022-09-29T14:29:52;17.93;;;16.93;;
3050;SDS011;1535;51.098;6.414;2022-09-29T14:32:27;17.00;;;16.10;;
3050;SDS011;1535;51.098;6.414;2022-09-29T14:35:05;17.27;;;16.37;;
3050;SDS011;1535;51.098;6.414;2022-09-29T14:37:41;17.30;;;16.33;;
3050;SDS011;1535;51.098;6.414;2022-09-29T14:40:11;17.20;;;15.87;;
3050;SDS011;1535;51.098;6.414;2022-09-29T14:43:04;17.80;;;16.50;;
3050;SDS011;1535;51.098;6.414;2022-09-29T14:45:35;17.20;;;16.30;;
3050;SDS011;1535;51.098;6.414;2022-09-29T14:48:30;17.50;;;16.30;;
3050;SDS011;1535;51.098;6.414;2022-09-29T14:51:21;17.73;;;16.73;;
3050;SDS011;1535;51.098;6.414;2022-09-29T14:54:13;18.20;;;16.97;;
3050;SDS011;1535;51.098;6.414;2022-09-29T14:56:53;18.57;;;17.00;;
3050;SDS011;1535;51.098;6.414;2022-09-29T14:59:31;17.13;;;16.30;;
3050;SDS011;1535;51.098;6.414;2022-09-29T15:02:15;17.80;;;16.70;;
3050;SDS011;1535;51.098;6.414;2022-09-29T15:04:45;17.90;;;16.77;;
3050;SDS011;1535;51.098;6.414;2022-09-29T15:07:14;17.83;;;16.83;;
3050;SDS011;1535;51.098;6.414;2022-09-29T15:09:44;18.17;;;17.00;;
3050;SDS011;1535;51.098;6.414;2022-09-29T15:12:14;17.70;;;16.70;;
3050;SDS011;1535;51.098;6.414;2022-09-29T15:14:42;17.03;;;16.03;;
3050;SDS011;1535;51.098;6.414;2022-09-29T15:17:12;17.27;;;16.17;;
3050;SDS011;1535;51.098;6.414;2022-09-29T15:19:51;17.00;;;15.87;;
3050;SDS011;1535;51.098;6.414;2022-09-29T15:25:19;17.00;;;15.80;;
3050;SDS011;1535;51.098;6.414;2022-09-29T15:27:55;16.03;;;15.20;;
3050;SDS011;1535;51.098;6.414;2022-09-29T15:30:25;16.47;;;15.60;;
3050;SDS011;1535;51.098;6.414;2022-09-29T15:32:53;17.07;;;16.10;;
3050;SDS011;1535;51.098;6.414;2022-09-29T15:35:37;16.90;;;16.00;;
3050;SDS011;1535;51.098;6.414;2022-09-29T15:38:15;17.20;;;15.97;;
3050;SDS011;1535;51.098;6.414;2022-09-29T15:40:57;16.60;;;15.80;;
3050;SDS011;1535;51.098;6.414;2022-09-29T15:43:28;16.90;;;16.00;;
3050;SDS011;1535;51.098;6.414;2022-09-29T15:45:59;16.77;;;15.87;;